• Join FlightAware (Why Join?)
  • Login
  • US Flag 
05:50AM EDT


 

Airport Tracker/Info


-or-


 

Live Flight TrackerFlight Track Log ✈ FLG3740 ✈ 30-Apr-2013 ✈ KCVG - KGRR

Flight Track Log - Related Links

Times and Time Zones

All times are in EDT time to prevent confusion due to time zone crossing. See the FLG3740 flight status page for this flight to view local times or setup timezone preferences in your user account.

Time Position Orientation Groundspeed Altitude Reporting Facility
EDT Latitude Longitude Course Direction KTS MPH feet Rate Location/Type
04:13PM 39.0500 -84.6833 351° North 163 188 1,400  Level Cincinnati TRACON
04:14PM 39.0500 -84.7167 270° West 171 197 2,700 1,680 Climbing Cincinnati TRACON
04:15PM 39.0500 -84.8167 270° West 284 327 4,100 2,280 Climbing Cincinnati TRACON
04:16PM 39.0833 -84.8833 303° West 275 316 7,300 2,640 Climbing Cincinnati TRACON
04:17PM 39.0751 -84.8950 351° North  Level FlightAware Approximate
04:17PM 39.1403 -84.8992 348° North 281 323 8,800  Level Indianapolis Center
04:18PM 39.1907 -84.9196 343° North  Level FlightAware Approximate
04:18PM 39.2214 -84.9219 348° North 294 338 11,000  Level Indianapolis Center
04:19PM 39.3038 -84.9579 351° North  Level FlightAware Approximate
04:19PM 39.3178 -84.9481 348° North 346 398 12,400  Level Indianapolis Center
04:20PM 39.4347 -84.9642 354° North 358 412 15,200 2,340 Climbing Indianapolis Center
04:21PM 39.5328 -84.9794 353° North 356 410 17,300 1,500 Climbing Indianapolis Center
04:22PM 39.6347 -84.9944 354° North 365 420 18,400 1,140 Climbing Indianapolis Center
04:23PM 39.7419 -85.0108 353° North 381 438 19,700 1,200 Climbing Indianapolis Center
04:24PM 39.8519 -85.0286 353° North 393 452 21,000 1,200 Climbing Indianapolis Center
04:25PM 39.9625 -85.0456 353° North 395 455 22,300 960 Climbing Indianapolis Center
04:26PM 40.0944 -85.0672 353° North 404 465 23,000 300 Climbing Indianapolis Center
04:27PM 40.2150 -85.0853 353° North 430 495 23,000  Level Indianapolis Center
04:28PM 40.3331 -85.1039 353° North 426 490 23,000  Level Indianapolis Center
04:29PM 40.4506 -85.1225 353° North 424 488 23,000  Level Indianapolis Center
04:30PM 40.5478 -85.1372 353° North 423 487 23,000  Level Chicago Center
04:31PM 40.6600 -85.1544 353° North 423 487 23,000  Level Chicago Center
04:32PM 40.8003 -85.1761 353° North 423 487 23,000  Level Chicago Center
04:33PM 40.9169 -85.1947 353° North 423 487 23,000  Level Chicago Center
04:34PM 41.0344 -85.2139 353° North 426 490 23,000  Level Chicago Center
04:35PM 41.1517 -85.2322 353° North 425 489 23,000  Level Chicago Center
04:36PM 41.2686 -85.2525 353° North 425 489 23,000  Level Chicago Center
04:37PM 41.3861 -85.2722 353° North 427 491 23,000  Level Chicago Center
04:38PM 41.5253 -85.2944 353° North 423 487 23,000  Level Chicago Center
04:39PM 41.6389 -85.3133 353° North 424 488 23,000  Level Chicago Center
04:40PM 41.7531 -85.3319 353° North 426 490 23,000 -1,020 Level Chicago Center
04:41PM 41.8842 -85.3553 352° North 407 468 20,900 -1,920 Descending Chicago Center
04:42PM 41.9881 -85.3714 353° North 379 436 19,000 -2,040 Descending Chicago Center
04:43PM 42.1006 -85.3911 353° North 377 434 16,800 -2,040 Descending Chicago Center
04:44PM 42.2019 -85.4083 353° North 369 425 14,800 -1,980 Descending Chicago Center
04:45PM 42.2994 -85.4217 354° North 356 410 12,800 -1,800 Descending Chicago Center
04:47PM 42.3950 -85.4383 353° North 349 402 11,100 -900 Descending Chicago Center
04:48PM 42.4894 -85.3975 18° North 357 411 11,000 -660 Descending Chicago Center
04:49PM 42.5761 -85.3453 24° Northeast 348 400 9,800 -1,020 Descending Chicago Center
04:50PM 42.6678 -85.3550 356° North 292 336 9,000 -1,020 Descending Chicago Center
04:51PM 42.7467 -85.3706 352° North 287 330 7,800 -1,380 Descending Chicago Center
04:52PM 42.8214 -85.3858 351° North 278 320 6,200 -1,380 Descending Chicago Center
04:53PM 42.8939 -85.4033 350° North 270 311 5,000 -1,380 Descending Chicago Center
04:54PM 42.9581 -85.4236 347° North 249 287 3,400 -1,260 Descending Chicago Center
04:55PM 42.9628 -85.5106 274° West 208 239 2,500 -900 Descending Chicago Center